Chapel Hill, TN (37034)

4:02 PM CDT on April 23, 2017 (GMT -0500)
Chapel Hill | | Change Station

Elev 696 ft 35.61 °N, 86.70 °W | Updated 7 minutes ago

Overcast
Overcast
50.9 °F
Feels Like 50.9 °F
N
8.0
Wind Variable Wind from NW
Gusts 11.0 mph

Today
High -- | Low -- °F
--% Chance of Precip.
Yesterday
High -- | Low -- °F
Precip. -- in
Pressure 29.65 in
Visibility 10.0 miles
Clouds Overcast 900 ft
Dew Point 50 °F
Humidity 95%
Rainfall 0.11 in
Snow Depth Not available.
6:03 AM 7:26 PM
Waning Crescent, 10% visible
METAR KMQY 232056Z 36009KT 10SM -RA OVC009 11/10 A2984 RMK AO2 RAB26 CIG 007V011 SLP038 P0001 60007 T01110100 55007
Pressure 29.65 in
Visibility 10.0 miles
Clouds Overcast 900 ft
Dew Point 50 °F
Humidity 95%
Rainfall 0.11 in
Snow Depth Not available.
6:03 AM 7:26 PM
Waning Crescent, 10% visible
METAR KMQY 232056Z 36009KT 10SM -RA OVC009 11/10 A2984 RMK AO2 RAB26 CIG 007V011 SLP038 P0001 60007 T01110100 55007

Get Severe Weather Alerts

Thanks for signing up!

Be on the lookout for a verification email in your inbox.

You'll start receiving the daily forecast at 8 AM.

×

10-Day Weather Forecast

Almanac

Astronomy

Apr. 23, 2017 Rise Set
Actual Time
Civil Twilight
Nautical Twilight
Astronomical Twilight
Moon
Length of Visible Light
Length of Day
Tomorrow will be .
, % of the Moon is Illuminated

Today's Extremes

State Highs State Lows

Community

WunderPhotos

WunderBlog® & News

Nearby

Air Quality

  Air Quality AQ Index Pollutant
Not available.

Snow Depth

Station Depth Elevation

Earthquake Activity

City Distance Mag. Time & Date
Minimum magnitude displayed is 2.5.

Coastal Water Temperatures

Place Temperature

Stations

Nearby Weather Stations

Station Location Temp. Windchill Dew Point Humidity Wind Precip. Elev Updated Type
                   

Watches & Warnings

There are currently no watches in effect.